createdAt,value
2023-12-27T00:00:41.727Z,102228.28
2023-12-27T00:03:08.378Z,102233.06
2023-12-27T00:05:34.882Z,102229.03
2023-12-27T00:08:01.327Z,102230.63
2023-12-27T00:10:27.770Z,102226.88
2023-12-27T00:12:54.316Z,102224.47
2023-12-27T00:15:20.893Z,102224.44
2023-12-27T00:17:47.358Z,102217.50
2023-12-27T00:20:13.888Z,102211.59
2023-12-27T00:22:41.906Z,102213.47
2023-12-27T00:25:08.398Z,102227.91
2023-12-27T00:27:34.994Z,102215.63
2023-12-27T00:30:01.652Z,102209.75
2023-12-27T00:32:28.457Z,102208.97
2023-12-27T00:34:55.090Z,102209.50
2023-12-27T00:37:21.486Z,102219.38
2023-12-27T00:39:48.998Z,102215.63
2023-12-27T00:42:15.598Z,102207.56
2023-12-27T00:44:42.139Z,102213.97
2023-12-27T00:47:08.676Z,102212.91
2023-12-27T00:49:35.159Z,102209.16
2023-12-27T00:52:01.677Z,102209.69
2023-12-27T00:54:28.186Z,102202.44
2023-12-27T00:56:54.730Z,102208.31
2023-12-27T00:59:21.134Z,102217.66
2023-12-27T01:01:47.538Z,102210.16
2023-12-27T01:04:14.769Z,102213.63
2023-12-27T01:06:41.356Z,102206.38
2023-12-27T01:09:08.430Z,102201.53
2023-12-27T01:11:34.994Z,102197.53
2023-12-27T01:14:03.208Z,102199.97
2023-12-27T01:16:29.752Z,102210.94
2023-12-27T01:18:56.395Z,102209.63
2023-12-27T01:21:23.006Z,102212.34
2023-12-27T01:23:49.432Z,102219.56
2023-12-27T01:26:15.872Z,102220.09
2023-12-27T01:28:42.895Z,102220.91
2023-12-27T01:31:10.925Z,102212.06
2023-12-27T01:33:37.604Z,102205.66
2023-12-27T01:36:08.789Z,102206.97
2023-12-27T01:38:35.427Z,102205.66
2023-12-27T01:41:01.934Z,102201.66
2023-12-27T01:43:28.360Z,102206.19
2023-12-27T01:45:55.342Z,102211.28
2023-12-27T01:48:22.333Z,102198.44
2023-12-27T01:50:50.482Z,102207.50
2023-12-27T01:53:21.241Z,102207.22
2023-12-27T01:55:48.349Z,102198.66
2023-12-27T01:58:17.038Z,102206.91
2023-12-27T02:00:45.969Z,102210.34
2023-12-27T02:03:12.702Z,102204.50
2023-12-27T02:05:41.136Z,102201.28
2023-12-27T02:08:11.315Z,102201.56
2023-12-27T02:10:38.634Z,102205.06
2023-12-27T02:13:08.616Z,102206.69
2023-12-27T02:15:36.361Z,102208.00
2023-12-27T02:18:06.011Z,102212.00
2023-12-27T02:20:33.378Z,102208.28
2023-12-27T02:23:02.657Z,102206.91
2023-12-27T02:25:29.373Z,102201.84
2023-12-27T02:27:56.406Z,102198.13
2023-12-27T02:30:24.558Z,102196.50
2023-12-27T02:32:52.789Z,102195.47
2023-12-27T02:35:20.128Z,102193.84
2023-12-27T02:37:46.873Z,102185.53
2023-12-27T02:40:13.464Z,102178.28
2023-12-27T02:42:40.710Z,102179.13
2023-12-27T02:45:08.081Z,102177.25
2023-12-27T02:47:34.974Z,102177.25
2023-12-27T02:50:01.602Z,102175.66
2023-12-27T02:52:28.070Z,102165.00
2023-12-27T02:54:56.593Z,102157.53
2023-12-27T02:57:23.334Z,102148.94
2023-12-27T02:59:50.425Z,102141.22
2023-12-27T03:02:17.077Z,102147.69
2023-12-27T03:04:43.642Z,102156.50
2023-12-27T03:07:10.299Z,102148.22
2023-12-27T03:09:36.963Z,102151.44
2023-12-27T03:12:04.016Z,102142.88
2023-12-27T03:14:30.505Z,102138.03
2023-12-27T03:16:56.933Z,102133.22
2023-12-27T03:19:24.184Z,102133.53
2023-12-27T03:21:50.737Z,102129.75
2023-12-27T03:24:17.302Z,102126.81
2023-12-27T03:26:43.735Z,102119.06
2023-12-27T03:29:10.170Z,102111.59
2023-12-27T03:31:36.791Z,102108.66
2023-12-27T03:34:03.483Z,102109.75
2023-12-27T03:36:30.052Z,102103.06
2023-12-27T03:38:56.638Z,102103.84
2023-12-27T03:41:23.214Z,102109.22
2023-12-27T03:43:49.630Z,102102.03
2023-12-27T03:46:17.804Z,102103.09
2023-12-27T03:48:44.550Z,102095.59
2023-12-27T03:51:12.754Z,102098.53
2023-12-27T03:53:39.366Z,102099.38
2023-12-27T03:56:09.907Z,102102.84
2023-12-27T03:58:36.432Z,102094.03
2023-12-27T04:01:02.952Z,102086.53
2023-12-27T04:03:31.334Z,102078.25
2023-12-27T04:05:59.137Z,102072.91
2023-12-27T04:08:25.625Z,102074.22
2023-12-27T04:10:52.012Z,102072.91
2023-12-27T04:13:19.680Z,102070.75
2023-12-27T04:15:46.217Z,102067.56
2023-12-27T04:18:13.516Z,102065.41
2023-12-27T04:20:40.104Z,102058.19
2023-12-27T04:23:06.530Z,102049.91
2023-12-27T04:25:33.284Z,102052.06
2023-12-27T04:28:00.318Z,102046.44
2023-12-27T04:30:26.938Z,102038.69
2023-12-27T04:32:53.397Z,102038.41
2023-12-27T04:35:19.837Z,102033.59
2023-12-27T04:37:46.418Z,102027.72
2023-12-27T04:40:13.290Z,102021.78
2023-12-27T04:42:39.772Z,102016.69
2023-12-27T04:45:06.895Z,102013.75
2023-12-27T04:47:33.550Z,102004.16
2023-12-27T04:50:00.420Z,102010.03
2023-12-27T04:52:27.072Z,102002.78
2023-12-27T04:54:54.109Z,101999.59
2023-12-27T04:57:20.561Z,101995.03
2023-12-27T04:59:47.249Z,102001.72
2023-12-27T05:02:13.673Z,101995.81
2023-12-27T05:04:40.154Z,102000.09
2023-12-27T05:07:06.613Z,101984.03
2023-12-27T05:09:33.213Z,101978.69
2023-12-27T05:11:59.749Z,101984.78
2023-12-27T05:14:26.433Z,101974.34
2023-12-27T05:16:56.181Z,101975.41
2023-12-27T05:19:23.295Z,101960.69
2023-12-27T05:21:49.851Z,101967.13
2023-12-27T05:24:16.352Z,101953.47
2023-12-27T05:26:42.908Z,101953.44
2023-12-27T05:29:09.502Z,101948.63
2023-12-27T05:31:36.001Z,101948.03
2023-12-27T05:34:02.686Z,101947.50
2023-12-27T05:36:29.397Z,101948.00
2023-12-27T05:38:55.997Z,101956.31
2023-12-27T05:41:26.999Z,101959.25
2023-12-27T05:43:54.579Z,101950.63
2023-12-27T05:46:21.115Z,101947.69
2023-12-27T05:48:47.724Z,101949.53
2023-12-27T05:51:14.234Z,101939.34
2023-12-27T05:53:40.878Z,101934.50
2023-12-27T05:56:07.835Z,101931.81
2023-12-27T05:58:34.423Z,101929.63
2023-12-27T06:01:00.997Z,101927.78
2023-12-27T06:03:27.588Z,101927.50
2023-12-27T06:05:54.061Z,101918.38
2023-12-27T06:08:22.396Z,101918.63
2023-12-27T06:10:49.093Z,101913.25
2023-12-27T06:13:15.582Z,101910.81
2023-12-27T06:15:42.061Z,101899.84
2023-12-27T06:18:08.617Z,101895.00
2023-12-27T06:20:35.144Z,101895.53
2023-12-27T06:23:01.542Z,101883.16
2023-12-27T06:25:27.936Z,101885.28
2023-12-27T06:27:55.764Z,101883.91
2023-12-27T06:30:22.812Z,101866.50
2023-12-27T06:32:49.620Z,101870.47
2023-12-27T06:35:16.113Z,101866.44
2023-12-27T06:37:43.922Z,101866.69
2023-12-27T06:40:11.469Z,101865.56
2023-12-27T06:42:37.966Z,101859.38
2023-12-27T06:45:05.029Z,101847.59
2023-12-27T06:47:31.501Z,101838.16
2023-12-27T06:49:58.086Z,101837.91
2023-12-27T06:52:24.498Z,101834.94
2023-12-27T06:54:50.985Z,101838.63
2023-12-27T06:57:17.453Z,101838.63
2023-12-27T06:59:43.913Z,101829.25
2023-12-27T07:02:10.491Z,101824.91
2023-12-27T07:04:38.592Z,101812.00
2023-12-27T07:07:05.661Z,101815.22
2023-12-27T07:09:32.423Z,101809.25
2023-12-27T07:11:58.935Z,101812.75
2023-12-27T07:14:25.422Z,101806.81
2023-12-27T07:16:51.841Z,101812.72
2023-12-27T07:19:18.533Z,101807.84
2023-12-27T07:21:45.086Z,101801.91
2023-12-27T07:24:11.690Z,101796.78
2023-12-27T07:26:38.659Z,101799.69
2023-12-27T07:29:05.460Z,101795.63
2023-12-27T07:31:31.962Z,101788.38
2023-12-27T07:33:58.637Z,101786.22
2023-12-27T07:36:25.339Z,101784.03
2023-12-27T07:38:51.780Z,101789.63
2023-12-27T07:41:18.187Z,101792.00
2023-12-27T07:43:44.636Z,101792.81
2023-12-27T07:46:11.844Z,101795.19
2023-12-27T07:48:38.396Z,101787.66
2023-12-27T07:51:05.190Z,101785.25
2023-12-27T07:53:33.496Z,101785.47
2023-12-27T07:56:00.321Z,101773.69
2023-12-27T07:58:26.877Z,101769.09
2023-12-27T08:00:54.361Z,101766.94
2023-12-27T08:03:21.053Z,101759.97
2023-12-27T08:05:47.801Z,101766.13
2023-12-27T08:08:14.377Z,101771.22
2023-12-27T08:10:40.914Z,101764.78
2023-12-27T08:13:09.156Z,101775.50
2023-12-27T08:15:36.883Z,101776.28
2023-12-27T08:18:06.339Z,101778.69
2023-12-27T08:20:32.881Z,101762.59
2023-12-27T08:22:59.711Z,101760.69
2023-12-27T08:25:26.329Z,101758.84
2023-12-27T08:27:52.802Z,101757.72
2023-12-27T08:30:19.495Z,101745.91
2023-12-27T08:32:46.159Z,101751.28
2023-12-27T08:35:12.772Z,101742.13
2023-12-27T08:37:39.255Z,101741.84
2023-12-27T08:40:07.680Z,101739.16
2023-12-27T08:42:34.179Z,101737.78
2023-12-27T08:45:00.939Z,101732.13
2023-12-27T08:47:28.388Z,101725.38
2023-12-27T08:49:56.391Z,101715.44
2023-12-27T08:52:22.967Z,101708.72
2023-12-27T08:54:49.494Z,101705.72
2023-12-27T08:57:16.716Z,101707.31
2023-12-27T08:59:43.319Z,101701.38
2023-12-27T09:02:09.694Z,101686.88
2023-12-27T09:04:36.152Z,101688.44
2023-12-27T09:07:02.703Z,101685.97
2023-12-27T09:09:30.143Z,101683.00
2023-12-27T09:11:56.740Z,101672.75
2023-12-27T09:14:23.306Z,101672.47
2023-12-27T09:16:49.772Z,101673.78
2023-12-27T09:19:16.572Z,101667.81
2023-12-27T09:21:46.859Z,101659.69
2023-12-27T09:24:14.555Z,101656.09
2023-12-27T09:26:41.127Z,101645.56
2023-12-27T09:29:10.548Z,101655.72
2023-12-27T09:31:37.674Z,101660.78
2023-12-27T09:34:04.533Z,101650.84
2023-12-27T09:36:31.124Z,101642.97
2023-12-27T09:38:57.696Z,101641.13
2023-12-27T09:41:24.842Z,101628.66
2023-12-27T09:43:55.055Z,101632.34
2023-12-27T09:46:24.237Z,101632.53
2023-12-27T09:48:52.332Z,101634.06
2023-12-27T09:51:24.524Z,101633.47
2023-12-27T09:53:51.953Z,101632.53
2023-12-27T09:56:23.053Z,101630.09
2023-12-27T09:58:51.551Z,101636.63
2023-12-27T10:01:21.185Z,101626.06
2023-12-27T10:03:53.306Z,101617.94
2023-12-27T10:06:38.354Z,101607.09
2023-12-27T10:09:06.417Z,101594.81
2023-12-27T10:11:34.138Z,101584.47
2023-12-27T10:14:01.020Z,101583.13
2023-12-27T10:16:27.797Z,101577.81
2023-12-27T10:18:54.269Z,101580.88
2023-12-27T10:21:21.083Z,101580.47
2023-12-27T10:23:47.623Z,101568.00
2023-12-27T10:26:14.251Z,101566.59
2023-12-27T10:28:40.982Z,101581.81
2023-12-27T10:31:07.598Z,101579.31
2023-12-27T10:33:41.484Z,101555.56
2023-12-27T10:36:10.303Z,101555.28
2023-12-27T10:38:38.614Z,101558.63
2023-12-27T10:41:06.872Z,101561.50
2023-12-27T10:43:33.966Z,101551.22
2023-12-27T10:46:00.728Z,101556.78
2023-12-27T10:48:32.659Z,101551.88
2023-12-27T10:50:59.599Z,101544.00
2023-12-27T10:53:33.883Z,101531.81
2023-12-27T10:56:03.437Z,101537.66
2023-12-27T10:58:32.756Z,101526.28
2023-12-27T11:00:59.974Z,101527.09
2023-12-27T11:03:31.552Z,101524.06
2023-12-27T11:05:59.903Z,101507.94
2023-12-27T11:08:28.533Z,101514.13
2023-12-27T11:13:32.482Z,101508.13
2023-12-27T11:16:00.494Z,101500.84
2023-12-27T11:18:31.330Z,101501.00
2023-12-27T11:20:58.882Z,101496.41
2023-12-27T11:23:25.821Z,101506.09
2023-12-27T11:25:55.210Z,101499.56
2023-12-27T11:28:23.303Z,101502.28
2023-12-27T11:30:50.124Z,101486.63
2023-12-27T11:33:23.495Z,101479.31
2023-12-27T11:35:51.649Z,101468.41
2023-12-27T11:38:22.194Z,101445.13
2023-12-27T11:40:52.020Z,101444.50
2023-12-27T11:43:23.835Z,101439.59
2023-12-27T11:46:08.087Z,101440.25
2023-12-27T11:48:37.625Z,101449.59
2023-12-27T11:51:37.414Z,101453.56
2023-12-27T11:54:05.728Z,101449.16
2023-12-27T11:56:39.828Z,101437.09
2023-12-27T11:59:07.841Z,101427.28
2023-12-27T12:01:37.150Z,101416.69
2023-12-27T12:04:04.354Z,101395.28
2023-12-27T12:07:00.718Z,101404.63
2023-12-27T12:09:36.904Z,101387.03
2023-12-27T12:12:21.160Z,101382.59
2023-12-27T12:14:53.384Z,101372.44
2023-12-27T12:17:21.905Z,101367.69
2023-12-27T12:19:50.121Z,101372.09
2023-12-27T12:22:17.921Z,101369.41
2023-12-27T12:24:45.972Z,101352.91
2023-12-27T12:27:16.468Z,101357.22
2023-12-27T12:29:45.087Z,101352.75
2023-12-27T12:32:16.033Z,101351.34
2023-12-27T12:34:43.409Z,101337.53
2023-12-27T12:37:11.176Z,101347.50
2023-12-27T12:39:37.850Z,101349.88
2023-12-27T12:42:04.552Z,101349.56
2023-12-27T12:44:32.536Z,101334.19
2023-12-27T12:47:00.575Z,101328.97
2023-12-27T12:49:28.853Z,101313.25
2023-12-27T12:52:05.426Z,101311.03
2023-12-27T12:54:33.502Z,101310.69
2023-12-27T12:57:04.742Z,101293.38
2023-12-27T12:59:31.430Z,101301.97
2023-12-27T13:01:58.263Z,101283.88
2023-12-27T13:04:25.621Z,101276.56
2023-12-27T13:07:06.126Z,101275.94
2023-12-27T13:09:32.809Z,101267.19
2023-12-27T13:11:59.471Z,101269.91
2023-12-27T13:14:26.275Z,101271.47
2023-12-27T13:16:53.929Z,101260.69
2023-12-27T13:19:20.599Z,101254.50
2023-12-27T13:21:47.313Z,101263.69
2023-12-27T13:24:14.794Z,101264.97
2023-12-27T13:26:41.552Z,101258.13
2023-12-27T13:29:08.002Z,101233.06
2023-12-27T13:31:34.644Z,101228.13
2023-12-27T13:34:01.261Z,101223.06
2023-12-27T13:36:29.679Z,101216.56
2023-12-27T13:38:56.402Z,101200.72
2023-12-27T13:41:22.894Z,101189.91
2023-12-27T13:43:49.291Z,101183.44
2023-12-27T13:46:16.433Z,101188.34
2023-12-27T13:48:43.922Z,101183.75
2023-12-27T13:51:10.798Z,101182.16
2023-12-27T13:53:37.447Z,101174.06
2023-12-27T13:56:04.179Z,101177.56
2023-12-27T13:58:32.226Z,101178.34
2023-12-27T14:00:58.840Z,101172.19
2023-12-27T14:03:25.455Z,101154.09
2023-12-27T14:05:52.093Z,101153.94
2023-12-27T14:08:18.576Z,101151.25
2023-12-27T14:10:46.971Z,101140.47
2023-12-27T14:13:13.420Z,101136.19
2023-12-27T14:15:40.156Z,101130.78
2023-12-27T14:18:07.764Z,101133.03
2023-12-27T14:20:34.447Z,101120.34
2023-12-27T14:23:01.167Z,101134.13
2023-12-27T14:25:31.463Z,101137.16
2023-12-27T14:27:59.398Z,101134.00
2023-12-27T14:30:27.548Z,101138.94
2023-12-27T14:32:54.056Z,101140.53
2023-12-27T14:35:20.488Z,101118.47
2023-12-27T14:37:47.016Z,101112.63
2023-12-27T14:40:14.492Z,101123.72
2023-12-27T14:42:43.804Z,101119.78
2023-12-27T14:45:13.523Z,101093.94
2023-12-27T14:47:40.162Z,101112.34
2023-12-27T14:50:07.428Z,101097.63
2023-12-27T14:52:33.942Z,101110.63
2023-12-27T14:55:00.391Z,101111.78
2023-12-27T14:57:27.066Z,101101.44
2023-12-27T14:59:53.529Z,101081.78
2023-12-27T15:02:20.018Z,101070.69
2023-12-27T15:04:46.628Z,101049.44
2023-12-27T15:07:13.370Z,101047.84
2023-12-27T15:09:40.056Z,101026.75
2023-12-27T15:12:06.891Z,101027.06
2023-12-27T15:14:33.407Z,101045.16
2023-12-27T15:16:59.886Z,101044.84
2023-12-27T15:19:26.377Z,101031.81
2023-12-27T15:21:54.306Z,101040.22
2023-12-27T15:24:20.921Z,101030.13
2023-12-27T15:26:47.390Z,101029.31
2023-12-27T15:29:14.131Z,101021.34
2023-12-27T15:31:41.044Z,101011.06
2023-12-27T15:34:09.146Z,101012.94
2023-12-27T15:36:39.754Z,101004.41
2023-12-27T15:39:06.379Z,101006.44
2023-12-27T15:41:33.118Z,101009.59
2023-12-27T15:44:00.904Z,101006.78
2023-12-27T15:46:30.805Z,100993.94
2023-12-27T15:48:58.211Z,100981.25
2023-12-27T15:51:34.483Z,100983.50
2023-12-27T15:54:04.835Z,100961.16
2023-12-27T15:56:33.941Z,100961.47
2023-12-27T15:59:02.120Z,100953.72
2023-12-27T16:01:33.379Z,100943.88
2023-12-27T16:04:01.297Z,100933.09
2023-12-27T16:06:29.861Z,100937.69
2023-12-27T16:08:57.141Z,100922.97
2023-12-27T16:11:24.060Z,100905.88
2023-12-27T16:13:52.018Z,100901.94
2023-12-27T16:16:18.817Z,100915.09
2023-12-27T16:18:45.736Z,100907.78
2023-12-27T16:21:15.113Z,100900.47
2023-12-27T16:23:42.767Z,100904.13
2023-12-27T16:26:12.062Z,100893.66
2023-12-27T16:28:40.512Z,100901.94
2023-12-27T16:31:07.262Z,100898.94
2023-12-27T16:33:34.144Z,100880.50
2023-12-27T16:36:02.784Z,100872.97
2023-12-27T16:38:29.801Z,100871.84
2023-12-27T16:40:59.439Z,100868.34
2023-12-27T16:43:28.558Z,100868.34
2023-12-27T16:45:55.060Z,100855.56
2023-12-27T16:48:24.649Z,100864.75
2023-12-27T16:50:51.339Z,100858.47
2023-12-27T16:53:18.951Z,100861.38
2023-12-27T16:55:46.721Z,100854.50
2023-12-27T16:58:13.490Z,100857.88
2023-12-27T17:00:40.210Z,100852.03
2023-12-27T17:03:08.655Z,100845.41
2023-12-27T17:05:35.727Z,100834.50
2023-12-27T17:08:03.509Z,100843.50
2023-12-27T17:10:30.195Z,100832.72
2023-12-27T17:12:57.908Z,100832.38
2023-12-27T17:15:24.914Z,100827.97
2023-12-27T17:17:52.912Z,100815.31
2023-12-27T17:20:19.738Z,100802.63
2023-12-27T17:22:46.781Z,100789.50
2023-12-27T17:25:13.327Z,100779.38
2023-12-27T17:27:40.064Z,100773.00
2023-12-27T17:30:10.527Z,100772.22
2023-12-27T17:32:38.368Z,100772.69
2023-12-27T17:35:08.830Z,100774.81
2023-12-27T17:37:38.949Z,100768.94
2023-12-27T17:40:06.781Z,100782.72
2023-12-27T17:42:33.776Z,100775.34
2023-12-27T17:45:00.966Z,100762.97
2023-12-27T17:47:28.157Z,100772.31
2023-12-27T17:49:58.431Z,100771.50
2023-12-27T17:52:27.556Z,100770.47
2023-12-27T17:54:55.532Z,100772.84
2023-12-27T17:57:34.504Z,100770.03
2023-12-27T18:00:01.536Z,100762.84
2023-12-27T18:02:27.977Z,100774.53
2023-12-27T18:04:54.654Z,100764.56
2023-12-27T18:07:21.353Z,100767.03
2023-12-27T18:09:49.084Z,100770.75
2023-12-27T18:12:15.963Z,100768.06
2023-12-27T18:14:43.936Z,100769.53
2023-12-27T18:17:13.120Z,100773.44
2023-12-27T18:19:41.344Z,100767.41
2023-12-27T18:22:08.811Z,100760.09
2023-12-27T18:24:39.444Z,100762.03
2023-12-27T18:27:06.619Z,100758.88
2023-12-27T18:29:37.609Z,100770.44
2023-12-27T18:32:05.226Z,100752.22
2023-12-27T18:34:32.191Z,100748.44
2023-12-27T18:36:59.555Z,100750.69
2023-12-27T18:39:26.813Z,100729.91
2023-12-27T18:41:55.273Z,100722.72
2023-12-27T18:44:22.429Z,100705.66
2023-12-27T18:46:48.926Z,100717.88
2023-12-27T18:49:15.518Z,100691.88
2023-12-27T18:51:42.917Z,100690.59
2023-12-27T18:54:09.722Z,100697.25
2023-12-27T18:56:36.333Z,100693.41
2023-12-27T18:59:05.196Z,100689.94
2023-12-27T19:01:32.135Z,100688.03
2023-12-27T19:03:59.335Z,100683.91
2023-12-27T19:06:27.594Z,100690.50
2023-12-27T19:09:00.155Z,100694.56
2023-12-27T19:11:28.544Z,100707.50
2023-12-27T19:13:56.939Z,100720.31
2023-12-27T19:16:23.388Z,100722.63
2023-12-27T19:18:51.469Z,100728.94
2023-12-27T19:21:18.353Z,100724.09
2023-12-27T19:23:45.511Z,100718.06
2023-12-27T19:26:19.914Z,100713.09
2023-12-27T19:28:48.941Z,100714.47
2023-12-27T19:31:15.635Z,100710.63
2023-12-27T19:33:42.486Z,100717.03
2023-12-27T19:36:10.032Z,100715.47
2023-12-27T19:38:37.532Z,100712.00
2023-12-27T19:41:06.008Z,100707.59
2023-12-27T19:43:32.991Z,100710.06
2023-12-27T19:45:59.624Z,100700.03
2023-12-27T19:48:26.896Z,100679.28
2023-12-27T19:50:53.506Z,100680.94
2023-12-27T19:53:20.106Z,100684.09
2023-12-27T19:55:46.999Z,100702.28
2023-12-27T19:58:13.618Z,100688.13
2023-12-27T20:00:40.301Z,100705.59
2023-12-27T20:03:08.673Z,100706.03
2023-12-27T20:05:35.330Z,100719.72
2023-12-27T20:08:01.728Z,100718.03
2023-12-27T20:10:29.972Z,100738.72
2023-12-27T20:13:01.120Z,100718.72
2023-12-27T20:15:29.610Z,100726.69
2023-12-27T20:17:56.631Z,100734.22
2023-12-27T20:20:23.383Z,100729.38
2023-12-27T20:22:50.018Z,100724.66
2023-12-27T20:25:17.687Z,100721.06
2023-12-27T20:27:45.066Z,100723.75
2023-12-27T20:30:12.385Z,100712.88
2023-12-27T20:32:38.949Z,100715.09
2023-12-27T20:35:06.007Z,100728.09
2023-12-27T20:37:33.229Z,100725.09
2023-12-27T20:40:00.416Z,100717.13
2023-12-27T20:42:27.402Z,100727.69
2023-12-27T20:44:54.027Z,100724.31
2023-12-27T20:47:21.026Z,100715.25
2023-12-27T20:49:48.061Z,100732.19
2023-12-27T20:52:14.563Z,100726.56
2023-12-27T20:54:41.122Z,100743.53
2023-12-27T20:57:07.664Z,100726.91
2023-12-27T20:59:35.143Z,100742.53
2023-12-27T21:02:01.790Z,100742.75
2023-12-27T21:04:28.440Z,100738.63
2023-12-27T21:06:55.305Z,100742.31
2023-12-27T21:09:21.798Z,100737.81
2023-12-27T21:11:48.918Z,100730.97
2023-12-27T21:14:15.465Z,100746.00
2023-12-27T21:16:42.338Z,100747.69
2023-12-27T21:19:09.319Z,100747.69
2023-12-27T21:21:36.115Z,100751.53
2023-12-27T21:24:02.712Z,100763.00
2023-12-27T21:26:29.874Z,100749.06
2023-12-27T21:28:56.469Z,100749.41
2023-12-27T21:31:24.487Z,100763.44
2023-12-27T21:33:54.620Z,100752.31
2023-12-27T21:36:29.512Z,100747.38
2023-12-27T21:38:56.540Z,100757.81
2023-12-27T21:41:23.952Z,100761.97
2023-12-27T21:43:50.568Z,100755.56
2023-12-27T21:46:22.499Z,100760.41
2023-12-27T21:48:49.801Z,100758.03
2023-12-27T21:51:18.700Z,100762.28
2023-12-27T21:53:45.859Z,100760.84
2023-12-27T21:56:19.618Z,100765.09
2023-12-27T21:58:46.404Z,100770.97
2023-12-27T22:01:13.581Z,100781.06
2023-12-27T22:03:42.554Z,100799.91
2023-12-27T22:06:12.540Z,100778.47
2023-12-27T22:08:39.340Z,100777.69
2023-12-27T22:11:06.345Z,100781.50
2023-12-27T22:13:33.893Z,100787.59
2023-12-27T22:16:01.850Z,100776.09
2023-12-27T22:18:28.697Z,100779.28
2023-12-27T22:20:55.267Z,100780.06
2023-12-27T22:23:21.915Z,100779.59
2023-12-27T22:25:48.387Z,100767.91
2023-12-27T22:28:16.719Z,100768.72
2023-12-27T22:30:44.120Z,100790.28
2023-12-27T22:33:11.489Z,100780.28
2023-12-27T22:35:39.445Z,100776.91
2023-12-27T22:38:07.822Z,100780.84
2023-12-27T22:40:37.794Z,100802.19
2023-12-27T22:43:04.949Z,100796.22
2023-12-27T22:45:32.975Z,100784.78
2023-12-27T22:48:00.295Z,100795.69
2023-12-27T22:50:27.055Z,100791.97
2023-12-27T22:52:54.517Z,100795.38
2023-12-27T22:55:23.133Z,100795.81
2023-12-27T22:57:49.961Z,100801.31
2023-12-27T23:00:21.333Z,100798.28
2023-12-27T23:02:52.448Z,100801.09
2023-12-27T23:05:20.706Z,100810.53
2023-12-27T23:07:47.863Z,100810.66
2023-12-27T23:10:15.062Z,100814.03
2023-12-27T23:12:42.541Z,100802.44
2023-12-27T23:15:09.737Z,100812.56
2023-12-27T23:17:37.245Z,100803.00
2023-12-27T23:20:04.693Z,100799.63
2023-12-27T23:22:31.828Z,100804.69
2023-12-27T23:24:59.091Z,100803.00
2023-12-27T23:27:26.437Z,100814.56
2023-12-27T23:29:53.303Z,100818.75
2023-12-27T23:32:20.082Z,100806.94
2023-12-27T23:34:47.465Z,100816.16
2023-12-27T23:37:14.522Z,100827.06
2023-12-27T23:39:44.401Z,100818.97
2023-12-27T23:42:11.683Z,100828.75
2023-12-27T23:44:38.436Z,100827.38
2023-12-27T23:47:05.429Z,100834.13
2023-12-27T23:49:32.551Z,100847.72
2023-12-27T23:52:00.016Z,100837.03
2023-12-27T23:54:26.734Z,100829.03
2023-12-27T23:56:53.846Z,100846.13
2023-12-27T23:59:20.430Z,100833.53
